Time;durP1;ratioP1;P1;durP2;ratioP2;P2;SDS_P1;SDS_P2;PMS_P1;PMS_P2;Temp;Humidity;BMP_temperature;BMP_pressure;BME280_temperature;BME280_humidity;BME280_pressure;Samples;Min_cycle;Max_cycle;Signal;HPM_P1;HPM_P2
2022/04/17 00:00:55;;;;;;;4.17;1.67;;;;;;;18.93;42.99;98619.84;4955530;29;20208;-88
2022/04/17 00:03:24;;;;;;;3.37;1.90;;;;;;;18.87;43.20;98616.91;4938361;29;20181;-88
2022/04/17 00:05:51;;;;;;;3.40;1.47;;;;;;;19.02;42.44;98618.13;4955458;29;20188;-88
2022/04/17 00:08:16;;;;;;;2.50;1.37;;;;;;;19.12;42.36;98618.09;4938565;29;20296;-88
2022/04/17 00:10:44;;;;;;;6.30;1.40;;;;;;;19.00;42.65;98628.03;4938276;29;20208;-88
2022/04/17 00:13:10;;;;;;;5.07;1.60;;;;;;;18.97;42.41;98628.38;4938223;29;20188;-88
2022/04/17 00:15:35;;;;;;;2.47;1.17;;;;;;;19.04;42.07;98637.41;4955087;29;20179;-87
2022/04/17 00:18:01;;;;;;;7.07;1.53;;;;;;;19.10;42.55;98643.97;4955090;29;20605;-88
2022/04/17 00:20:26;;;;;;;3.23;1.30;;;;;;;19.12;42.05;98649.97;4938145;29;20180;-88
2022/04/17 00:22:52;;;;;;;1.90;1.10;;;;;;;19.12;41.93;98634.03;4938085;29;20181;-88
2022/04/17 00:25:18;;;;;;;1.53;0.83;;;;;;;19.20;42.02;98636.78;4938261;29;20184;-88
2022/04/17 00:27:43;;;;;;;4.97;1.80;;;;;;;19.17;41.99;98637.06;4938246;29;20204;-88
2022/04/17 00:30:10;;;;;;;7.93;2.03;;;;;;;19.17;42.04;98637.91;4938079;29;20192;-88
2022/04/17 00:32:36;;;;;;;5.47;1.40;;;;;;;19.17;42.12;98626.44;4955188;29;20282;-88
2022/04/17 00:35:07;;;;;;;3.87;1.93;;;;;;;19.18;42.67;98628.13;4938280;29;20271;-88
2022/04/17 00:37:32;;;;;;;3.30;1.40;;;;;;;19.08;42.36;98630.81;4937968;29;20710;-88
2022/04/17 00:39:58;;;;;;;4.03;1.40;;;;;;;19.05;42.58;98633.75;4955159;29;20187;-89
2022/04/17 00:42:23;;;;;;;3.10;1.17;;;;;;;19.18;42.19;98633.44;4938340;29;20645;-88
2022/04/17 00:44:49;;;;;;;2.80;1.33;;;;;;;19.18;42.01;98631.59;4955120;29;20176;-88
2022/04/17 00:47:17;;;;;;;2.57;1.50;;;;;;;19.23;41.91;98628.53;4937842;29;20279;-88
2022/04/17 00:49:45;;;;;;;7.07;1.53;;;;;;;19.18;42.58;98625.47;4938181;29;20624;-88
2022/04/17 00:52:10;;;;;;;3.30;1.63;;;;;;;19.18;42.31;98622.81;4938181;29;20181;-88
2022/04/17 00:54:42;;;;;;;3.50;1.50;;;;;;;19.12;42.35;98612.78;4938127;29;20188;-88
2022/04/17 00:57:10;;;;;;;3.23;1.47;;;;;;;19.10;42.49;98623.56;4938476;29;20264;-88
2022/04/17 00:59:36;;;;;;;4.03;1.63;;;;;;;19.10;42.45;98626.22;4938334;29;20181;-88
2022/04/17 01:02:05;;;;;;;2.93;1.23;;;;;;;19.15;41.99;98620.44;4954801;29;20178;-88
2022/04/17 01:04:30;;;;;;;5.10;1.93;;;;;;;19.16;42.11;98620.28;4954651;29;20181;-88
2022/04/17 01:06:56;;;;;;;4.93;1.53;;;;;;;19.21;41.70;98617.22;4939045;29;20181;-88
2022/04/17 01:09:21;;;;;;;10.27;1.43;;;;;;;19.13;41.82;98612.63;4941318;29;20212;-88
2022/04/17 01:11:48;;;;;;;4.43;1.00;;;;;;;19.15;42.02;98636.41;4958598;29;20188;-88
2022/04/17 01:14:14;;;;;;;2.17;1.10;;;;;;;18.98;42.28;98646.81;4958506;29;20179;-88
2022/04/17 01:16:40;;;;;;;7.67;1.67;;;;;;;18.92;42.58;98659.81;4941381;29;20195;-88
2022/04/17 01:19:13;;;;;;;4.67;1.60;;;;;;;18.99;42.82;98660.91;4958220;29;20215;-88
2022/04/17 01:21:40;;;;;;;3.23;1.43;;;;;;;19.03;43.04;98659.63;4941168;29;20654;-88
2022/04/17 01:26:56;;;;;;;5.07;1.50;;;;;;;19.01;42.98;98656.28;4958915;29;20613;-88
2022/04/17 01:29:32;;;;;;;2.53;1.40;;;;;;;18.97;43.37;98653.09;4941856;29;20263;-88
2022/04/17 01:31:59;;;;;;;3.80;1.70;;;;;;;18.93;42.99;98667.66;4941339;29;20272;-88
2022/04/17 01:34:25;;;;;;;2.97;1.23;;;;;;;18.86;43.18;98663.91;4957809;29;20186;-88
2022/04/17 01:36:51;;;;;;;5.80;2.70;;;;;;;18.81;43.49;98663.50;4941260;29;20255;-88
2022/04/17 01:39:18;;;;;;;5.20;1.93;;;;;;;18.73;43.33;98665.19;4940958;29;20198;-89
2022/04/17 01:41:44;;;;;;;2.67;1.47;;;;;;;18.53;43.59;98664.38;4940934;28;20271;-87
2022/04/17 01:44:10;;;;;;;2.70;1.37;;;;;;;18.33;43.72;98663.53;4941122;29;20655;-88
2022/04/17 01:46:35;;;;;;;3.37;1.40;;;;;;;18.50;43.27;98674.44;4940954;29;20268;-88
2022/04/17 01:49:02;;;;;;;7.67;3.73;;;;;;;18.47;43.44;98669.38;4940648;29;20208;-88
2022/04/17 01:51:27;;;;;;;4.47;2.33;;;;;;;18.58;43.13;98656.00;4940680;29;20260;-88
2022/04/17 01:53:53;;;;;;;9.43;2.10;;;;;;;18.66;42.48;98654.28;4957507;29;20290;-88
2022/04/17 01:56:18;;;;;;;3.80;1.50;;;;;;;18.79;42.35;98649.50;4940600;29;20280;-88
2022/04/17 01:58:44;;;;;;;3.17;1.50;;;;;;;18.84;41.93;98643.78;4958339;29;20365;-88
2022/04/17 02:01:09;;;;;;;3.33;1.40;;;;;;;18.86;41.96;98637.34;4957445;29;20187;-88
2022/04/17 02:03:35;;;;;;;3.77;1.83;;;;;;;18.91;42.25;98636.91;4940470;29;20573;-88
2022/04/17 02:06:00;;;;;;;5.50;1.47;;;;;;;18.96;42.16;98630.19;4940411;29;20180;-88
2022/04/17 02:08:29;;;;;;;4.13;1.90;;;;;;;18.89;42.30;98637.03;4940301;29;20271;-88
2022/04/17 02:10:56;;;;;;;7.30;1.60;;;;;;;18.89;42.58;98629.06;4957259;29;20244;-88
2022/04/17 02:13:23;;;;;;;3.37;1.30;;;;;;;18.72;42.42;98635.13;4957221;29;20181;-88
2022/04/17 02:15:53;;;;;;;7.50;1.83;;;;;;;18.73;42.92;98644.78;4957146;29;20177;-88
2022/04/17 02:18:24;;;;;;;5.63;1.50;;;;;;;18.81;42.74;98639.59;4939320;29;20168;-88
2022/04/17 02:20:49;;;;;;;2.53;1.37;;;;;;;18.84;42.95;98646.44;4940179;29;20260;-88
2022/04/17 02:23:15;;;;;;;2.83;1.60;;;;;;;18.86;43.33;98647.97;4940424;29;20737;-88
2022/04/17 02:25:41;;;;;;;3.63;1.90;;;;;;;18.87;43.85;98648.78;4940411;29;20189;-88
2022/04/17 02:28:07;;;;;;;3.13;1.47;;;;;;;18.88;44.25;98656.63;4939987;29;20271;-88
2022/04/17 02:30:33;;;;;;;2.77;1.20;;;;;;;18.90;44.35;98637.88;4939981;29;20617;-88
2022/04/17 02:32:58;;;;;;;10.37;2.07;;;;;;;18.89;44.61;98650.31;4956844;29;20186;-89
2022/04/17 02:35:24;;;;;;;9.30;1.60;;;;;;;18.80;45.19;98650.34;4939914;29;20192;-88
2022/04/17 02:37:49;;;;;;;4.63;1.70;;;;;;;18.88;44.80;98642.50;4939876;29;20180;-88
2022/04/17 02:40:15;;;;;;;3.73;1.33;;;;;;;18.72;45.50;98652.88;4939846;29;20194;-88
2022/04/17 02:42:40;;;;;;;3.57;1.60;;;;;;;18.66;45.50;98664.91;4939724;29;20604;-88
2022/04/17 02:45:05;;;;;;;2.07;1.10;;;;;;;18.58;45.54;98656.81;4940067;29;20181;-88
2022/04/17 02:47:43;;;;;;;2.60;1.30;;;;;;;18.53;46.84;98664.38;4956820;29;20660;-87
2022/04/17 02:50:15;;;;;;;4.47;1.87;;;;;;;18.54;47.26;98665.22;4956846;29;20184;-86
2022/04/17 02:52:41;;;;;;;4.47;2.03;;;;;;;18.62;48.21;98660.88;4956506;29;20173;-86
2022/04/17 02:55:07;;;;;;;4.60;1.70;;;;;;;18.54;51.36;98655.44;4956714;29;20271;-84
2022/04/17 02:57:32;;;;;;;7.63;1.60;;;;;;;18.44;53.27;98659.91;4939280;29;20181;-84
2022/04/17 02:59:58;;;;;;;4.13;2.40;;;;;;;18.35;55.44;98658.91;4956648;29;20175;-84
2022/04/17 03:07:54;;;;;;;3.30;1.67;;;;;;;18.03;59.48;98692.81;4956210;29;20210;-84
2022/04/17 03:10:20;;;;;;;9.03;2.23;;;;;;;18.03;60.01;98697.31;4939111;29;20176;-84
2022/04/17 03:12:45;;;;;;;6.50;2.30;;;;;;;17.77;60.89;98697.81;4956200;29;20181;-85
2022/04/17 03:15:11;;;;;;;5.90;2.70;;;;;;;17.48;60.05;98702.16;4956085;29;20196;-85
2022/04/17 03:17:37;;;;;;;3.00;1.70;;;;;;;17.50;61.38;98696.75;4956076;29;20215;-85
2022/04/17 03:20:04;;;;;;;6.60;2.27;;;;;;;17.69;61.09;98695.00;4956009;29;20625;-86
2022/04/17 03:22:30;;;;;;;3.87;1.87;;;;;;;17.57;63.01;98704.03;4939015;29;20185;-86
2022/04/17 03:24:56;;;;;;;11.50;2.83;;;;;;;17.27;66.01;98711.97;4938960;29;20586;-87
2022/04/17 03:27:21;;;;;;;6.20;2.57;;;;;;;17.08;67.76;98719.84;4938907;29;20185;-87
2022/04/17 03:29:47;;;;;;;4.73;2.40;;;;;;;17.06;67.76;98721.75;4939034;29;20216;-86
2022/04/17 03:32:12;;;;;;;5.43;2.63;;;;;;;17.17;67.12;98721.69;4938886;29;20195;-86
2022/04/17 03:34:38;;;;;;;5.63;2.40;;;;;;;17.30;66.41;98709.06;4956078;29;20181;-86
2022/04/17 03:37:04;;;;;;;5.27;2.13;;;;;;;17.26;65.49;98702.38;4955968;29;20220;-86
2022/04/17 03:39:31;;;;;;;4.47;2.10;;;;;;;17.23;65.30;98702.63;4955641;29;20186;-85
2022/04/17 03:41:57;;;;;;;5.83;2.40;;;;;;;17.28;64.84;98711.00;4955483;28;20220;-85
2022/04/17 03:44:23;;;;;;;5.60;2.50;;;;;;;17.18;66.33;98715.44;4955608;29;20583;-85
2022/04/17 03:46:49;;;;;;;4.40;2.67;;;;;;;17.11;67.39;98719.59;4939434;29;20184;-85
2022/04/17 03:49:15;;;;;;;5.63;2.93;;;;;;;17.15;67.41;98720.97;4955460;29;20573;-84
2022/04/17 03:51:40;;;;;;;5.43;2.30;;;;;;;17.16;66.69;98730.63;4938546;29;20181;-84
2022/04/17 03:54:05;;;;;;;3.87;2.17;;;;;;;17.16;66.06;98722.69;4955394;29;20180;-84
2022/04/17 03:56:31;;;;;;;5.43;2.83;;;;;;;17.16;65.81;98722.69;4955362;29;20180;-84
2022/04/17 03:58:57;;;;;;;4.23;2.57;;;;;;;17.14;65.25;98725.44;4955632;29;20190;-84
2022/04/17 04:01:22;;;;;;;7.50;3.57;;;;;;;17.13;65.92;98725.59;4955312;29;20688;-84
2022/04/17 04:03:49;;;;;;;5.83;2.77;;;;;;;17.04;66.69;98727.19;4938307;29;20256;-84
2022/04/17 04:06:14;;;;;;;4.90;2.90;;;;;;;17.01;66.72;98734.56;4955262;29;20242;-85
2022/04/17 04:08:40;;;;;;;5.03;2.47;;;;;;;16.90;67.57;98738.09;4955382;29;20207;-85
2022/04/17 04:11:05;;;;;;;5.77;3.43;;;;;;;16.91;67.78;98741.59;4955134;29;20184;-85
2022/04/17 04:13:34;;;;;;;7.20;3.30;;;;;;;16.85;67.90;98737.66;4938234;29;20264;-85
2022/04/17 04:15:59;;;;;;;5.00;3.23;;;;;;;16.77;68.59;98742.75;4938042;29;20208;-86
2022/04/17 04:18:25;;;;;;;5.40;2.73;;;;;;;16.71;67.78;98745.09;4938160;29;20613;-86
2022/04/17 04:20:50;;;;;;;4.93;2.60;;;;;;;16.88;67.08;98737.41;4938162;29;20545;-86
2022/04/17 04:23:19;;;;;;;4.10;2.60;;;;;;;17.01;66.68;98734.56;4939205;29;20180;-86
2022/04/17 04:25:44;;;;;;;4.63;2.43;;;;;;;17.03;66.26;98736.09;4938216;29;20189;-86
2022/04/17 04:30:54;;;;;;;4.63;2.53;;;;;;;16.97;65.63;98736.63;4955531;29;20178;-86
2022/04/17 04:33:19;;;;;;;4.80;2.73;;;;;;;16.91;65.45;98741.59;4954922;29;20178;-86
2022/04/17 04:35:45;;;;;;;3.83;1.90;;;;;;;16.82;66.67;98742.41;4954939;29;20190;-87
2022/04/17 04:38:11;;;;;;;11.60;3.53;;;;;;;16.79;66.57;98745.28;4937957;29;20278;-86
2022/04/17 04:40:36;;;;;;;4.27;2.70;;;;;;;16.74;67.15;98745.69;4955659;29;20647;-87
2022/04/17 04:43:03;;;;;;;4.33;2.27;;;;;;;16.68;65.34;98742.69;4941005;29;20238;-86
2022/04/17 04:48:14;;;;;;;5.23;2.97;;;;;;;16.31;66.54;98716.63;4958968;29;20206;-86
2022/04/17 04:50:39;;;;;;;4.70;2.70;;;;;;;16.08;67.00;98717.69;4941716;29;20537;-87
2022/04/17 04:53:05;;;;;;;4.43;2.73;;;;;;;15.96;67.96;98719.50;4941960;29;20804;-87
2022/04/17 04:55:30;;;;;;;4.37;2.60;;;;;;;15.86;68.62;98715.09;4941949;29;20179;-87
2022/04/17 04:57:56;;;;;;;6.27;2.70;;;;;;;15.66;69.57;98713.22;4941850;29;20264;-87
2022/04/17 05:00:21;;;;;;;4.13;2.40;;;;;;;15.52;70.11;98721.38;4941895;29;20181;-86
2022/04/17 05:02:47;;;;;;;5.40;3.00;;;;;;;15.54;70.91;98716.84;4958439;29;20241;-88
2022/04/17 05:05:13;;;;;;;5.50;2.87;;;;;;;15.37;71.79;98716.34;4958644;29;20186;-87
2022/04/17 05:07:39;;;;;;;7.33;3.77;;;;;;;15.40;72.49;98720.53;4958303;29;20218;-87
2022/04/17 05:10:06;;;;;;;5.30;2.43;;;;;;;15.38;72.76;98719.81;4958346;29;20177;-85
2022/04/17 05:12:32;;;;;;;6.10;3.30;;;;;;;15.12;74.92;98715.72;4958568;29;20184;-86
2022/04/17 05:14:58;;;;;;;5.67;3.13;;;;;;;15.16;76.00;98717.16;4941326;29;20173;-86
2022/04/17 05:17:23;;;;;;;7.87;3.10;;;;;;;15.11;76.67;98709.59;4958186;29;20255;-85
2022/04/17 05:19:50;;;;;;;7.47;3.50;;;;;;;15.05;77.13;98712.72;4958200;29;20216;-86
2022/04/17 05:22:16;;;;;;;14.13;3.67;;;;;;;14.97;77.05;98712.47;4941414;29;20188;-87
2022/04/17 05:24:44;;;;;;;6.73;3.97;;;;;;;15.07;77.17;98707.31;4941313;29;20195;-86
2022/04/17 05:27:09;;;;;;;6.63;3.47;;;;;;;15.04;77.01;98708.38;4958872;29;20249;-86
2022/04/17 05:29:35;;;;;;;8.20;3.80;;;;;;;14.96;78.28;98700.25;4940987;29;20208;-87
2022/04/17 05:32:00;;;;;;;9.97;4.00;;;;;;;14.85;78.64;98705.50;4958214;29;20264;-87
2022/04/17 05:34:26;;;;;;;7.80;3.70;;;;;;;14.90;78.55;98716.53;4941096;29;20203;-89
2022/04/17 05:36:52;;;;;;;8.03;4.03;;;;;;;14.87;79.00;98705.38;4957877;29;20205;-88
2022/04/17 05:39:17;;;;;;;9.90;3.60;;;;;;;14.78;80.58;98717.47;4957825;29;20181;-88
2022/04/17 05:41:44;;;;;;;5.03;2.97;;;;;;;14.93;79.69;98716.31;4958186;28;20287;-86
2022/04/17 05:44:10;;;;;;;7.30;3.73;;;;;;;14.98;79.38;98726.50;4958004;29;20231;-86
2022/04/17 05:46:36;;;;;;;9.53;4.33;;;;;;;15.03;79.43;98733.13;4940739;29;20193;-88
2022/04/17 05:49:06;;;;;;;7.83;3.90;;;;;;;15.11;80.08;98729.88;4940909;29;20211;-86
2022/04/17 05:51:33;;;;;;;6.50;3.90;;;;;;;15.07;79.65;98738.97;4958149;29;20209;-87
2022/04/17 05:54:00;;;;;;;8.43;4.13;;;;;;;14.99;80.62;98731.66;4956232;28;20243;-86
2022/04/17 05:56:27;;;;;;;7.30;3.97;;;;;;;14.98;80.92;98722.06;4957511;29;20177;-85
2022/04/17 05:58:52;;;;;;;7.27;3.40;;;;;;;14.73;81.72;98724.88;4958014;29;20212;-84
2022/04/17 06:01:18;;;;;;;9.07;4.40;;;;;;;14.69;81.26;98723.44;4957726;29;20216;-86
2022/04/17 06:03:44;;;;;;;7.27;4.90;;;;;;;14.78;82.30;98717.47;4957717;29;20181;-84
2022/04/17 06:06:10;;;;;;;7.30;3.53;;;;;;;14.53;83.29;98723.78;4957371;29;20192;-87
2022/04/17 06:08:36;;;;;;;7.77;3.43;;;;;;;14.44;83.22;98718.34;4957144;29;20205;-84
2022/04/17 06:11:01;;;;;;;5.40;3.07;;;;;;;14.51;83.93;98719.56;4957311;29;20645;-82
2022/04/17 06:13:27;;;;;;;5.93;3.77;;;;;;;14.39;84.57;98712.56;4940325;29;20185;-86
2022/04/17 06:15:52;;;;;;;7.63;3.47;;;;;;;14.40;85.77;98706.34;4957180;29;20182;-84
2022/04/17 06:18:18;;;;;;;8.37;3.23;;;;;;;14.62;84.79;98701.16;4957137;29;20182;-84
2022/04/17 06:20:44;;;;;;;6.07;2.93;;;;;;;14.47;85.72;98691.72;4940190;29;20184;-82
2022/04/17 06:23:09;;;;;;;4.63;2.47;;;;;;;14.38;87.13;98697.72;4957000;29;20185;-83
2022/04/17 06:25:34;;;;;;;7.23;3.27;;;;;;;14.47;85.82;98682.03;4956939;29;20628;-83
2022/04/17 06:28:00;;;;;;;5.50;2.57;;;;;;;14.35;86.49;98688.22;4956911;29;20247;-82
2022/04/17 06:30:26;;;;;;;3.77;2.23;;;;;;;14.29;88.04;98679.91;4957215;29;20191;-85
2022/04/17 06:32:52;;;;;;;3.73;2.20;;;;;;;14.28;87.29;98686.97;4957163;29;20185;-85
2022/04/17 06:35:17;;;;;;;9.53;2.30;;;;;;;14.34;87.47;98683.91;4956838;29;20181;-83
2022/04/17 06:37:54;;;;;;;3.70;2.10;;;;;;;14.40;87.83;98686.09;4956808;29;20240;-83
2022/04/17 06:40:21;;;;;;;4.10;2.47;;;;;;;14.32;87.55;98687.59;4956792;29;20177;-83
2022/04/17 06:42:48;;;;;;;6.07;2.80;;;;;;;14.46;86.94;98692.69;4956612;28;20192;-84
2022/04/17 06:45:14;;;;;;;4.20;2.30;;;;;;;14.23;86.40;98696.19;4956645;29;20187;-84
2022/04/17 06:47:40;;;;;;;7.07;2.90;;;;;;;14.26;87.16;98693.31;4939676;29;20262;-85
2022/04/17 06:50:06;;;;;;;6.37;3.30;;;;;;;14.38;86.63;98692.44;4956867;29;20185;-85
2022/04/17 06:52:32;;;;;;;5.57;3.20;;;;;;;14.35;87.69;98690.88;4956784;29;20660;-83
2022/04/17 06:54:57;;;;;;;6.63;3.00;;;;;;;14.58;86.72;98697.88;4956499;29;20271;-84
2022/04/17 06:57:33;;;;;;;6.50;2.43;;;;;;;14.45;86.68;98693.66;4956768;29;20659;-82
2022/04/17 07:00:07;;;;;;;9.23;3.90;;;;;;;14.32;88.42;98692.88;4956400;29;20203;-84
2022/04/17 07:02:33;;;;;;;6.73;2.60;;;;;;;14.55;86.43;98689.34;4956656;29;20165;-85
2022/04/17 07:04:58;;;;;;;7.67;3.40;;;;;;;14.50;85.65;98694.13;4939023;29;20292;-84
2022/04/17 07:07:24;;;;;;;8.43;4.03;;;;;;;14.49;86.56;98713.56;4956195;29;20181;-84
2022/04/17 07:09:49;;;;;;;7.70;3.57;;;;;;;14.30;87.61;98715.84;4939338;29;20632;-84
2022/04/17 07:12:16;;;;;;;6.73;3.20;;;;;;;14.30;87.08;98719.34;4938733;29;20185;-83
2022/04/17 07:14:41;;;;;;;3.97;2.70;;;;;;;14.18;87.06;98716.78;4956135;29;20182;-85
2022/04/17 07:17:07;;;;;;;7.53;3.27;;;;;;;13.95;88.50;98700.84;4939179;29;20192;-84
2022/04/17 07:19:32;;;;;;;12.80;4.23;;;;;;;14.23;86.85;98704.91;4933060;29;20199;-85
2022/04/17 07:22:02;;;;;;;5.90;3.67;;;;;;;14.53;85.93;98702.66;4936748;29;20208;-85
2022/04/17 07:24:28;;;;;;;7.60;3.47;;;;;;;14.38;86.09;98703.81;4937005;29;20268;-87
2022/04/17 07:26:56;;;;;;;7.50;4.30;;;;;;;14.29;86.03;98714.16;4954572;29;20626;-85
2022/04/17 07:29:26;;;;;;;6.70;4.13;;;;;;;14.51;84.77;98709.03;4938621;29;20223;-84
2022/04/17 07:31:53;;;;;;;13.37;4.20;;;;;;;14.40;85.14;98703.69;4938593;29;20180;-84
2022/04/17 07:34:23;;;;;;;3.93;3.00;;;;;;;14.39;85.23;98702.84;4955153;29;20177;-85
2022/04/17 07:36:54;;;;;;;7.03;3.23;;;;;;;14.36;85.10;98694.34;4938337;29;20184;-88
2022/04/17 07:39:22;;;;;;;9.30;3.97;;;;;;;14.35;86.41;98692.66;4955112;29;20165;-87
2022/04/17 07:41:49;;;;;;;8.90;4.00;;;;;;;14.49;85.10;98679.28;4919378;29;20193;-83
2022/04/17 07:44:16;;;;;;;7.20;3.27;;;;;;;14.38;85.57;98671.34;4952698;29;20529;-83
2022/04/17 07:46:42;;;;;;;5.30;3.50;;;;;;;14.39;84.93;98667.72;4954676;29;20189;-85
2022/04/17 07:49:10;;;;;;;4.47;2.93;;;;;;;14.39;86.35;98673.00;4955038;29;20205;-84
2022/04/17 07:51:37;;;;;;;4.87;2.57;;;;;;;14.03;87.78;98687.09;4921979;29;20205;-82
2022/04/17 07:54:04;;;;;;;5.27;3.07;;;;;;;13.92;88.85;98697.59;4937015;29;20611;-83
2022/04/17 07:56:31;;;;;;;4.97;2.63;;;;;;;14.16;88.07;98704.53;4938169;29;20184;-84
2022/04/17 07:58:57;;;;;;;4.07;2.70;;;;;;;14.12;87.61;98697.78;4937953;29;20196;-84
2022/04/17 08:01:24;;;;;;;5.57;2.80;;;;;;;13.93;88.60;98699.28;4937921;29;20184;-83
2022/04/17 08:03:50;;;;;;;3.17;2.13;;;;;;;13.94;88.11;98698.34;4954388;29;20252;-84
2022/04/17 08:06:20;;;;;;;6.80;3.07;;;;;;;14.09;88.10;98692.78;4953745;29;20185;-85
2022/04/17 08:08:49;;;;;;;3.97;2.73;;;;;;;13.97;87.81;98688.41;4936762;29;20624;-84
2022/04/17 08:11:16;;;;;;;4.10;2.87;;;;;;;13.63;88.41;98690.94;4954871;29;20173;-84
2022/04/17 08:13:45;;;;;;;4.87;2.40;;;;;;;13.63;88.94;98698.84;4937998;29;20199;-85
2022/04/17 08:16:13;;;;;;;7.10;2.87;;;;;;;13.83;89.07;98693.00;4954291;28;20185;-84
2022/04/17 08:18:40;;;;;;;5.00;2.40;;;;;;;14.15;87.78;98699.38;4938087;29;20617;-86
2022/04/17 08:21:11;;;;;;;4.30;2.57;;;;;;;13.92;87.28;98694.94;4937995;29;20549;-85
2022/04/17 08:23:39;;;;;;;5.03;2.30;;;;;;;14.06;85.40;98697.44;4953646;29;20165;-85
2022/04/17 08:26:05;;;;;;;2.23;1.67;;;;;;;13.72;86.89;98706.94;4953215;29;20177;-85
2022/04/17 08:28:31;;;;;;;4.60;2.10;;;;;;;13.76;87.36;98707.53;4919159;29;20213;-84
2022/04/17 08:30:57;;;;;;;3.60;2.43;;;;;;;13.85;86.46;98699.84;4935724;29;20211;-85
2022/04/17 08:33:24;;;;;;;3.40;2.00;;;;;;;13.85;85.80;98712.16;4953376;29;20188;-85
2022/04/17 08:35:50;;;;;;;6.80;2.33;;;;;;;13.62;87.35;98703.28;4953426;29;20624;-83
2022/04/17 08:38:19;;;;;;;2.33;1.67;;;;;;;13.48;88.83;98701.66;4937607;29;20194;-84
2022/04/17 08:40:45;;;;;;;3.83;2.40;;;;;;;13.35;88.69;98698.19;4954888;29;20189;-87
2022/04/17 08:43:10;;;;;;;3.93;2.43;;;;;;;13.29;88.29;98687.25;4938188;29;20200;-85
2022/04/17 08:45:36;;;;;;;3.20;1.67;;;;;;;13.59;88.31;98690.34;4954839;29;20601;-84
2022/04/17 08:48:04;;;;;;;3.77;1.67;;;;;;;13.78;86.57;98685.44;4938231;29;20236;-88
2022/04/17 08:50:31;;;;;;;4.43;2.30;;;;;;;13.57;85.62;98668.56;4938123;29;20263;-89
2022/04/17 08:52:58;;;;;;;3.93;2.40;;;;;;;13.26;86.75;98684.84;4938380;29;20192;-86
2022/04/17 08:55:24;;;;;;;4.13;1.87;;;;;;;13.55;85.46;98678.34;4937874;29;20280;-87
2022/04/17 08:57:49;;;;;;;3.80;2.40;;;;;;;13.46;85.22;98684.28;4937862;29;20259;-87
2022/04/17 09:00:20;;;;;;;3.93;1.47;;;;;;;13.36;84.96;98678.81;4955234;29;20270;-87
2022/04/17 09:02:47;;;;;;;3.17;1.90;;;;;;;13.44;84.86;98679.09;4954952;29;20200;-84
2022/04/17 09:05:14;;;;;;;5.27;2.37;;;;;;;13.43;85.10;98681.84;4954588;29;20179;-86
2022/04/17 09:07:46;;;;;;;3.77;1.73;;;;;;;13.45;85.21;98677.31;4938404;29;20224;-88
2022/04/17 09:10:24;;;;;;;5.90;2.30;;;;;;;13.46;85.53;98682.50;4954953;29;20172;-88
2022/04/17 09:12:52;;;;;;;3.93;2.07;;;;;;;13.61;84.03;98667.38;4954878;29;20169;-87
2022/04/17 09:15:21;;;;;;;3.47;2.00;;;;;;;13.52;83.78;98674.13;4938477;29;20197;-88
2022/04/17 09:17:48;;;;;;;4.60;2.40;;;;;;;13.67;83.17;98680.09;4954729;29;20189;-87
2022/04/17 09:20:22;;;;;;;4.33;2.20;;;;;;;13.82;83.27;98678.97;4954684;29;20187;-88
2022/04/17 09:22:48;;;;;;;4.53;1.90;;;;;;;13.83;82.45;98672.78;4954987;29;20180;-86
2022/04/17 09:25:15;;;;;;;4.43;2.17;;;;;;;13.54;84.67;98666.13;4954519;29;20191;-86
2022/04/17 09:28:03;;;;;;;2.90;1.47;;;;;;;13.47;85.27;98680.66;4938051;29;20553;-89
2022/04/17 09:30:30;;;;;;;4.37;2.47;;;;;;;13.49;85.26;98673.53;4958015;29;20183;-87
2022/04/17 09:32:56;;;;;;;5.23;2.13;;;;;;;13.54;85.10;98668.78;4958471;29;20204;-88
2022/04/17 09:35:26;;;;;;;2.07;1.50;;;;;;;13.59;83.99;98661.38;4957880;29;20253;-88
2022/04/17 09:37:59;;;;;;;4.03;2.23;;;;;;;13.49;84.69;98657.72;4958101;29;20262;-91
2022/04/17 09:40:29;;;;;;;2.60;1.47;;;;;;;13.45;83.66;98645.72;4957791;29;20191;-88
2022/04/17 09:43:12;;;;;;;3.30;2.17;;;;;;;13.53;84.09;98646.84;4957498;28;20252;-87
2022/04/17 09:46:00;;;;;;;4.57;2.00;;;;;;;13.57;83.88;98642.22;4958251;29;20188;-89
2022/04/17 09:48:30;;;;;;;3.97;2.40;;;;;;;13.58;82.85;98638.63;4957621;29;20200;-88
2022/04/17 09:50:55;;;;;;;8.20;2.50;;;;;;;13.62;83.25;98634.84;4957624;29;20646;-90
2022/04/17 09:53:30;;;;;;;3.60;1.97;;;;;;;13.62;83.07;98650.63;4957841;29;20267;-88
2022/04/17 09:56:10;;;;;;;3.90;2.03;;;;;;;13.72;82.87;98641.09;4957736;29;20213;-89
2022/04/17 09:58:48;;;;;;;4.73;2.50;;;;;;;13.85;82.55;98631.34;4957900;29;20224;-90
2022/04/17 10:01:18;;;;;;;3.57;1.93;;;;;;;13.95;81.88;98621.81;4940561;29;20173;-89
2022/04/17 10:03:45;;;;;;;2.63;1.43;;;;;;;13.81;82.43;98614.06;4957685;29;20613;-87
2022/04/17 10:06:12;;;;;;;3.43;1.43;;;;;;;13.49;83.60;98610.34;4957323;29;20242;-89
2022/04/17 10:08:42;;;;;;;3.03;1.77;;;;;;;13.63;82.87;98618.06;4940611;29;20219;-87
2022/04/17 10:11:08;;;;;;;3.03;1.40;;;;;;;13.43;82.46;98609.00;4957283;29;20189;-89
2022/04/17 10:13:35;;;;;;;1.60;0.93;;;;;;;13.21;83.23;98623.78;4957502;29;20183;-89
2022/04/17 10:16:04;;;;;;;3.30;1.43;;;;;;;13.04;84.51;98632.00;4957153;29;20203;-87
2022/04/17 10:18:33;;;;;;;3.77;1.17;;;;;;;13.13;84.26;98631.41;4957356;29;20176;-89
2022/04/17 10:20:59;;;;;;;4.47;2.07;;;;;;;12.70;85.75;98637.00;4957048;29;20549;-88
2022/04/17 10:23:27;;;;;;;4.27;1.13;;;;;;;12.89;85.94;98632.13;4957314;29;20174;-89
2022/04/17 10:25:57;;;;;;;2.37;1.40;;;;;;;12.94;83.75;98637.09;4957021;29;20182;-88
2022/04/17 10:28:26;;;;;;;2.20;1.30;;;;;;;13.20;82.77;98648.44;4957208;29;20188;-88
2022/04/17 10:31:19;;;;;;;2.63;1.37;;;;;;;13.04;83.38;98642.53;4957168;29;20561;-89
2022/04/17 10:34:04;;;;;;;5.47;1.47;;;;;;;13.20;83.44;98632.66;4957198;29;20613;-89
2022/04/17 10:36:54;;;;;;;2.57;1.40;;;;;;;12.98;83.63;98632.44;4939920;29;20175;-88
2022/04/17 10:39:28;;;;;;;3.47;1.53;;;;;;;12.73;85.69;98634.16;4956258;28;20183;-89
2022/04/17 10:41:54;;;;;;;2.40;1.10;;;;;;;12.79;85.08;98641.63;4956629;28;20552;-88
2022/04/17 10:44:21;;;;;;;3.57;1.80;;;;;;;12.58;86.23;98648.34;4940029;29;20183;-89
2022/04/17 10:46:51;;;;;;;2.00;1.03;;;;;;;12.65;85.71;98646.16;4956628;29;20187;-88
2022/04/17 10:49:26;;;;;;;3.03;1.33;;;;;;;12.86;84.45;98645.53;4956502;29;20210;-88
2022/04/17 10:51:56;;;;;;;2.47;1.30;;;;;;;12.92;84.45;98654.75;4956835;29;20601;-88
2022/04/17 10:54:22;;;;;;;2.90;1.43;;;;;;;12.98;84.33;98648.22;4956522;29;20171;-88
2022/04/17 10:56:53;;;;;;;1.40;0.90;;;;;;;13.02;84.22;98655.81;4956414;29;20294;-88
2022/04/17 10:59:22;;;;;;;3.00;1.40;;;;;;;13.15;82.16;98645.28;4956392;29;20172;-88
2022/04/17 11:01:54;;;;;;;3.33;1.73;;;;;;;13.36;82.19;98639.31;4956305;29;20260;-88
2022/04/17 11:04:25;;;;;;;4.47;1.47;;;;;;;13.36;82.02;98649.03;4956340;29;20177;-88
2022/04/17 11:07:11;;;;;;;1.90;1.30;;;;;;;13.39;81.67;98646.19;4956494;29;20641;-87
2022/04/17 11:09:42;;;;;;;1.83;0.90;;;;;;;13.17;83.08;98648.66;4955533;29;20580;-88
2022/04/17 11:12:26;;;;;;;2.60;1.20;;;;;;;13.45;81.32;98653.63;4956135;29;20159;-88
2022/04/17 11:15:17;;;;;;;2.47;1.30;;;;;;;13.61;80.96;98648.94;4956116;29;20192;-89
2022/04/17 11:17:43;;;;;;;2.33;0.90;;;;;;;13.68;80.94;98652.78;4956313;29;20607;-88
2022/04/17 11:20:10;;;;;;;2.00;0.73;;;;;;;13.74;80.05;98647.09;4956017;29;20655;-88
2022/04/17 11:22:37;;;;;;;3.07;1.33;;;;;;;13.61;81.06;98654.19;4955920;29;20176;-87
2022/04/17 11:25:05;;;;;;;4.03;1.50;;;;;;;13.63;80.87;98646.19;4956191;29;20212;-86
2022/04/17 11:27:35;;;;;;;1.83;0.80;;;;;;;13.57;80.45;98636.97;4938947;29;20207;-86
2022/04/17 11:30:03;;;;;;;1.50;0.80;;;;;;;13.60;81.40;98639.34;4938958;29;20279;-85
2022/04/17 11:32:31;;;;;;;3.47;1.13;;;;;;;13.52;81.54;98633.81;4938871;29;20188;-86
2022/04/17 11:35:00;;;;;;;2.07;1.07;;;;;;;13.46;82.02;98629.00;4956300;29;20239;-84
2022/04/17 11:37:28;;;;;;;2.77;1.07;;;;;;;13.31;83.26;98617.75;4955724;29;20187;-87
2022/04/17 11:39:57;;;;;;;2.40;1.30;;;;;;;13.40;82.56;98629.41;4939064;29;20598;-85
2022/04/17 11:42:28;;;;;;;1.90;0.87;;;;;;;13.44;82.13;98625.63;4955589;29;20276;-83
2022/04/17 11:44:53;;;;;;;2.53;1.10;;;;;;;13.24;81.90;98634.09;4955685;29;20620;-85
2022/04/17 11:47:22;;;;;;;4.50;1.57;;;;;;;13.04;83.67;98618.84;4955602;29;20316;-83
2022/04/17 11:49:48;;;;;;;1.47;0.90;;;;;;;13.06;83.92;98612.53;4955350;29;20223;-83